AirNav   Pilot Hours Calculator
 
 428 users online  

8G1 Willard Airport
Willard, Ohio, USA

GOING TO WILLARD?


FAA INFORMATION EFFECTIVE 07 OCTOBER 2021

Location

FAA Identifier: 8G1
Lat/Long: 41-02-19.5016N 082-43-28.4333W
41-02.325027N 082-43.473888W
41.0387504,-82.7245648
(estimated)
Elevation: 966.6 ft. / 294.6 m (surveyed)
Variation: 06W (1985)
From city: 1 mile S of WILLARD, OH
Time zone: UTC -4 (UTC -5 during Standard Time)
Zip code: 44890

Airport Operations

Airport use: Open to the public
Activation date: 07/1944
Control tower: no
ARTCC: CLEVELAND CENTER
FSS: CLEVELAND FLIGHT SERVICE STATION
NOTAMs facility: CLE (NOTAM-D service available)
Attendance: UNATNDD
Wind indicator: yes
Segmented circle: no
Lights: ACTVT MIRL RWY 10/28 - CTAF.

Airport Communications

CTAF: 122.9
CLEVELAND APPROACH: 124.2
CLEVELAND DEPARTURE: 124.2
WX ASOS at MFD (16 nm SE): 125.3 (419-520-4785)
WX AWOS-3 at 17G (19 nm SW): 126.625 (419-562-0279)
  • APCH/DEP SVC PRVDD BY CLEVELAND APCH (CLE) 0600-2300. APCH/DEP SVC PRVDD BY CLEVELAND ARTCC (ZOB) ON FREQS 134.9/317.7 (MANSFIELD RCAG) 2300-0600.

Nearby radio navigation aids

VOR radial/distance  VOR name  Freq  Var
MFDr332/11.9MANSFIELD VORTAC108.8003W
BUDr036/(29.6)BUCKEYE VOR109.8005W
DJBr238/31.8DRYER VOR/DME113.6005W

 
NDB name  Hdg/Dist  Freq  Var  ID
TIFFIN104/22.426905WTII - .. ..
PORT CLINTON174/29.542307WPCW .--. -.-. .--

Airport Services

Fuel available: 100LL
100LL:FOR FUEL WKDAYS 0700-1500 CALL AMGR; AFTR HRS CALL 419-933-2571.
Parking: tiedowns

Runway Information

Runway 10/28

Dimensions: 4028 x 65 ft. / 1228 x 20 m
Surface: asphalt, in fair condition
Runway edge lights: medium intensity
RUNWAY 10  RUNWAY 28
Latitude: 41-02.368032N41-02.281995N
Longitude: 082-43.908197W082-43.039590W
Elevation: 966.6 ft.936.0 ft.
Traffic pattern: leftleft
Runway heading: 103 magnetic, 097 true283 magnetic, 277 true
Displaced threshold: 300 ft.610 ft.
Markings: basic, in good conditionbasic, in good condition
Touchdown point: yes, no lightsyes, no lights
Obstructions: 14 ft. bldg, 201 ft. from runway, 95 ft. left of centerline
15 FT RD 75 FT DSTC 125 FT L/R; 15 FT PRKG LOT 0-90 FT DSTC 50 FT L; 14 FT BLDG 180 FT DSTC 100 FT L.
100 ft. trees, 1245 ft. from runway, 124 ft. left of centerline, 10:1 slope to clear
10 FT PRKG LOT, 135-200 FT DIST, 99-105 FT R.

Airport Ownership and Management from official FAA records

Ownership: Publicly-owned
Owner: CITY OF WILLARD
631 S MYRTLE AVE
WILLARD, OH 44890-1549
Phone 419-933-2591
CITY MGR BHAMONS@WILLARDOHIO.US; AMGR DMONTONEY@WILLARDOH.US.
Manager: DEAN MONTONEY
631 MYRTLE AVENUE
WILLARD, OH 44890-9587
Phone 419-933-7531
ARPT PHYS ADDR 3744 STATE ROUTE 103 S, WILLARD, OH 44890.

Airport Operational Statistics

Aircraft operations: avg 43/month *
97% transient general aviation
3% military
* for 12-month period ending 28 July 2021

Additional Remarks

FOR CD CTC CLEVELAND APCH AT 216-352-2323, WHEN APCH CLSD CTC CLEVELAND ARTCC AT 440-774-0222.
RWY 28 END, AUTO DEALER PRKG LOT LGTS SHINE IN RWY APCH.
DEER & BIRDS ON & INVOF ARPT.

Instrument Procedures

NOTE: All procedures below are presented as PDF files. If you need a reader for these files, you should download the free Adobe Reader.

NOT FOR NAVIGATION. Please procure official charts for flight.
FAA instrument procedures published for use from 07 October 2021 at 0901Z to 04 November 2021 at 0900z.

 
IAPs - Instrument Approach Procedures
RNAV (GPS)-A   download (138KB)
NOTE: Special Take-Off Minimums/Departure Procedures apply   download (331KB)

Other nearby airports with instrument procedures:

12G - Shelby Community Airport (10 nm S)
5A1 - Norwalk-Huron County Airport (15 nm NE)
KMFD - Mansfield Lahm Regional Airport (16 nm SE)
KGQQ - Galion Municipal Airport (17 nm S)
17G - Port Bucyrus-Crawford County Airport (19 nm SW)
 
Loc | Ops | Rwys | IFR | FBO | Links
Com | Nav | Svcs | Stats | Notes
Area around 8G1 (Willard Airport)
 
Road maps at: MapQuest Bing Google
 
Aerial photo
WARNING: Photo may not be current or correct
Aerial photo of 8G1 (Willard Airport)
looking east

Do you have a better or more recent aerial photo of Willard Airport that you would like to share? If so, please send us your photo.

 
Sectional chart

 
Airport distance calculator
Flying to Willard Airport? Find the distance to fly.

From to 8G1

Sunrise and sunset
Times for 18-Oct-2021
 Local
(UTC-4)
 Zulu
(UTC)
Morning civil twilight07:1911:19
Sunrise07:4711:47
Sunset18:4522:45
Evening civil twilight19:1323:13

Current date and time
Zulu (UTC)  18-Oct-2021 08:00:30
Local (UTC-4)  18-Oct-2021 04:00:30
 
METAR
KMFD 
16nm SE 
180752Z AUTO 25007KT 10SM CLR 08/03 A3006 RMK AO2 SLP181 T00830028
KPCW 
29nm N 
180735Z AUTO 26006KT 10SM CLR 08/04 A3005 RMK AO2
KMNN 
30nm SW 
180753Z AUTO 26007KT 10SM CLR 08/03 A3009 RMK AO2 SLP191 T00780028 $
KLPR 
31nm NE 
180753Z AUTO 28008KT 10SM CLR 09/04 A3005 RMK AO2 SLP177 T00890039
TAF
KMFD 
16nm SE 
180520Z 1806/1906 28007KT P6SM SKC FM190300 VRB03KT P6SM SKC
NOTAMs
Click for the latest NOTAMs
NOTAMs are issued by the DoD/FAA and will open in a separate window not controlled by AirNav.

 

 
 

FBO, Fuel Providers, and Aircraft Ground Support

  
 Business Name 
 
 Contact 
 
 Services / Description 
 
Fuel Prices
 
Comments
  
Willard Aviation 419-933-7531
no information available

If you are affiliated with Willard Aviation and would like to show here your services, contact info, web link, logo, and more, click here
100LL
PS $5.30 
 Updated 14-Oct-2021
 
   2 read write
PS=Pump service
Update Fuel Prices
 

Would you like to see your business listed on this page?

 If your business provides an interesting product or service to pilots, flight crews, aircraft, or users of the Willard Airport, you should consider listing it here.  To start the listing process, click on the button below
 
Add a business
 

Other Pages about Willard Airport

Update a link
 
Copyright © AirNav, LLC. All rights reserved. Privacy Policy  Contact